createdAt,value
2022-11-10T00:00:25.356Z,10.81
2022-11-10T00:03:13.125Z,10.78
2022-11-10T00:06:02.755Z,10.78
2022-11-10T00:08:50.361Z,10.72
2022-11-10T00:11:38.011Z,10.66
2022-11-10T00:14:42.889Z,10.64
2022-11-10T00:17:32.159Z,10.66
2022-11-10T00:20:19.924Z,10.66
2022-11-10T00:23:07.851Z,10.66
2022-11-10T00:25:55.403Z,10.66
2022-11-10T00:28:43.248Z,10.61
2022-11-10T00:31:30.705Z,10.64
2022-11-10T00:34:19.660Z,10.58
2022-11-10T00:37:07.505Z,10.51
2022-11-10T00:39:54.886Z,10.50
2022-11-10T00:42:42.760Z,10.45
2022-11-10T00:45:30.663Z,10.45
2022-11-10T00:48:18.115Z,10.39
2022-11-10T00:51:07.145Z,10.32
2022-11-10T00:53:54.940Z,10.35
2022-11-10T00:56:42.708Z,10.23
2022-11-10T00:59:30.495Z,10.20
2022-11-10T01:02:18.152Z,10.16
2022-11-10T01:05:06.054Z,10.06
2022-11-10T01:07:55.176Z,9.97
2022-11-10T01:10:42.980Z,9.92
2022-11-10T01:13:30.789Z,9.90
2022-11-10T01:16:20.776Z,9.90
2022-11-10T01:19:09.451Z,9.78
2022-11-10T01:21:58.024Z,9.78
2022-11-10T01:24:46.917Z,9.75
2022-11-10T01:27:34.521Z,9.75
2022-11-10T01:30:22.145Z,9.66
2022-11-10T01:33:09.754Z,9.62
2022-11-10T01:35:57.562Z,9.59
2022-11-10T01:38:45.762Z,9.68
2022-11-10T01:41:34.725Z,9.72
2022-11-10T01:44:24.237Z,9.56
2022-11-10T01:47:12.142Z,9.54
2022-11-10T01:49:59.711Z,9.55
2022-11-10T01:52:51.275Z,9.50
2022-11-10T01:55:42.132Z,9.39
2022-11-10T01:58:39.879Z,9.43
2022-11-10T02:01:27.828Z,9.40
2022-11-10T02:04:18.022Z,9.36
2022-11-10T02:07:06.969Z,9.39
2022-11-10T02:09:55.033Z,9.37
2022-11-10T02:12:42.751Z,9.32
2022-11-10T02:15:31.879Z,9.29
2022-11-10T02:18:19.673Z,9.34
2022-11-10T02:21:09.282Z,9.28
2022-11-10T02:23:57.168Z,9.28
2022-11-10T02:26:49.544Z,9.18
2022-11-10T02:29:37.075Z,9.15
2022-11-10T02:32:24.757Z,9.03
2022-11-10T02:35:12.698Z,9.06
2022-11-10T02:38:01.614Z,9.01
2022-11-10T02:40:50.834Z,9.10
2022-11-10T02:43:39.445Z,9.07
2022-11-10T02:46:27.321Z,9.00
2022-11-10T02:49:14.854Z,8.90
2022-11-10T02:52:02.538Z,8.97
2022-11-10T02:54:51.354Z,9.02
2022-11-10T02:57:39.465Z,9.00
2022-11-10T03:00:27.722Z,9.06
2022-11-10T03:03:15.611Z,8.90
2022-11-10T03:06:03.312Z,8.89
2022-11-10T03:08:50.927Z,8.94
2022-11-10T03:11:39.822Z,8.89
2022-11-10T03:14:27.631Z,8.84
2022-11-10T03:17:15.323Z,8.77
2022-11-10T03:20:03.015Z,8.70
2022-11-10T03:22:50.862Z,8.80
2022-11-10T03:25:38.649Z,8.83
2022-11-10T03:28:27.796Z,8.67
2022-11-10T03:31:15.422Z,8.65
2022-11-10T03:34:02.958Z,8.69
2022-11-10T03:36:50.706Z,8.60
2022-11-10T03:39:38.172Z,8.63
2022-11-10T03:42:25.723Z,8.52
2022-11-10T03:45:16.788Z,8.43
2022-11-10T03:48:04.539Z,8.42
2022-11-10T03:50:52.329Z,8.34
2022-11-10T03:53:39.859Z,8.34
2022-11-10T03:56:27.680Z,8.37
2022-11-10T03:59:15.387Z,8.40
2022-11-10T04:02:04.524Z,8.34
2022-11-10T04:05:09.558Z,8.45
2022-11-10T04:08:19.229Z,8.46
2022-11-10T04:11:07.062Z,8.41
2022-11-10T04:14:12.068Z,8.45
2022-11-10T04:17:00.177Z,8.33
2022-11-10T04:19:49.525Z,8.30
2022-11-10T04:22:54.531Z,8.38
2022-11-10T04:26:05.302Z,8.40
2022-11-10T04:28:55.436Z,8.42
2022-11-10T04:31:43.695Z,8.44
2022-11-10T04:34:31.080Z,8.51
2022-11-10T04:37:19.973Z,8.48
2022-11-10T04:40:09.052Z,8.55
2022-11-10T04:42:56.883Z,8.59
2022-11-10T04:45:44.981Z,8.66
2022-11-10T04:48:33.602Z,8.79
2022-11-10T04:51:22.479Z,8.89
2022-11-10T04:54:13.128Z,8.94
2022-11-10T04:57:00.747Z,8.94
2022-11-10T04:59:48.293Z,8.99
2022-11-10T05:02:39.622Z,8.97
2022-11-10T05:05:27.965Z,8.94
2022-11-10T05:08:16.326Z,8.99
2022-11-10T05:11:05.772Z,9.01
2022-11-10T05:13:53.295Z,9.05
2022-11-10T05:16:40.713Z,9.06
2022-11-10T05:19:28.341Z,8.95
2022-11-10T05:22:16.011Z,8.97
2022-11-10T05:25:03.823Z,8.99
2022-11-10T05:27:52.752Z,9.04
2022-11-10T05:30:41.239Z,9.08
2022-11-10T05:33:28.868Z,9.07
2022-11-10T05:36:16.345Z,9.20
2022-11-10T05:39:03.766Z,9.19
2022-11-10T05:41:51.255Z,9.20
2022-11-10T05:44:40.120Z,9.15
2022-11-10T05:47:27.838Z,9.18
2022-11-10T05:50:15.746Z,9.13
2022-11-10T05:53:03.705Z,9.15
2022-11-10T05:55:51.316Z,9.13
2022-11-10T05:58:38.772Z,9.07
2022-11-10T06:01:27.861Z,9.18
2022-11-10T06:04:15.571Z,9.17
2022-11-10T06:07:03.448Z,9.14
2022-11-10T06:09:50.834Z,9.10
2022-11-10T06:12:38.399Z,9.14
2022-11-10T06:15:26.858Z,9.12
2022-11-10T06:18:16.038Z,9.17
2022-11-10T06:21:03.776Z,9.26
2022-11-10T06:23:51.269Z,9.21
2022-11-10T06:26:39.002Z,9.21
2022-11-10T06:29:27.185Z,9.15
2022-11-10T06:32:14.786Z,9.15
2022-11-10T06:35:03.773Z,9.12
2022-11-10T06:37:59.545Z,9.09
2022-11-10T06:40:47.231Z,9.08
2022-11-10T06:43:34.885Z,9.06
2022-11-10T06:46:22.574Z,9.12
2022-11-10T06:49:10.033Z,9.10
2022-11-10T06:51:58.959Z,9.11
2022-11-10T06:54:46.949Z,9.08
2022-11-10T06:57:39.898Z,9.05
2022-11-10T07:00:28.813Z,9.07
2022-11-10T07:03:17.380Z,9.10
2022-11-10T07:06:05.522Z,9.08
2022-11-10T07:08:54.449Z,9.06
2022-11-10T07:11:43.207Z,9.06
2022-11-10T07:14:31.102Z,9.11
2022-11-10T07:17:18.455Z,9.05
2022-11-10T07:20:06.616Z,9.07
2022-11-10T07:23:00.227Z,9.04
2022-11-10T07:25:49.474Z,9.05
2022-11-10T07:28:37.300Z,9.06
2022-11-10T07:31:24.808Z,9.03
2022-11-10T07:34:12.374Z,9.08
2022-11-10T07:37:00.097Z,9.12
2022-11-10T07:39:47.765Z,9.17
2022-11-10T07:42:41.104Z,9.24
2022-11-10T07:45:29.353Z,9.30
2022-11-10T07:48:17.597Z,9.33
2022-11-10T07:51:05.244Z,9.28
2022-11-10T07:53:53.083Z,9.34
2022-11-10T07:56:41.152Z,9.42
2022-11-10T07:59:29.893Z,9.37
2022-11-10T08:02:17.431Z,9.38
2022-11-10T08:05:05.247Z,9.46
2022-11-10T08:07:54.846Z,9.39
2022-11-10T08:10:43.202Z,9.38
2022-11-10T08:13:30.637Z,9.42
2022-11-10T08:16:19.748Z,9.53
2022-11-10T08:19:07.255Z,9.66
2022-11-10T08:21:54.907Z,9.66
2022-11-10T08:24:42.495Z,9.71
2022-11-10T08:27:30.427Z,9.69
2022-11-10T08:30:18.575Z,9.76
2022-11-10T08:33:09.382Z,9.75
2022-11-10T08:35:56.890Z,9.91
2022-11-10T08:38:44.314Z,9.89
2022-11-10T08:41:31.953Z,10.02
2022-11-10T08:44:21.042Z,10.19
2022-11-10T08:47:08.934Z,10.29
2022-11-10T08:49:57.925Z,10.35
2022-11-10T08:52:45.813Z,10.29
2022-11-10T08:55:33.749Z,10.28
2022-11-10T08:58:22.728Z,10.35
2022-11-10T09:01:11.512Z,10.42
2022-11-10T09:03:59.335Z,10.38
2022-11-10T09:06:48.312Z,10.55
2022-11-10T09:09:36.128Z,10.59
2022-11-10T09:12:23.844Z,10.66
2022-11-10T09:15:12.613Z,10.88
2022-11-10T09:18:00.738Z,10.76
2022-11-10T09:20:48.301Z,11.00
2022-11-10T09:23:37.139Z,10.95
2022-11-10T09:26:24.831Z,11.08
2022-11-10T09:29:12.360Z,10.87
2022-11-10T09:32:00.298Z,10.99
2022-11-10T09:34:52.763Z,11.11
2022-11-10T09:37:41.141Z,11.12
2022-11-10T09:40:44.454Z,11.00
2022-11-10T09:43:39.507Z,10.99
2022-11-10T09:46:30.410Z,11.03
2022-11-10T09:49:29.133Z,11.13
2022-11-10T09:52:18.970Z,11.37
2022-11-10T09:55:18.102Z,11.58
2022-11-10T09:58:09.368Z,11.60
2022-11-10T10:01:05.138Z,11.62
2022-11-10T10:04:01.642Z,11.50
2022-11-10T10:07:10.566Z,11.57
2022-11-10T10:10:05.475Z,11.55
2022-11-10T10:13:12.452Z,11.51
2022-11-10T10:16:15.223Z,11.47
2022-11-10T10:19:14.919Z,11.49
2022-11-10T10:22:34.191Z,11.53
2022-11-10T10:25:24.233Z,11.76
2022-11-10T10:28:21.625Z,11.81
2022-11-10T10:31:19.083Z,11.71
2022-11-10T10:34:13.292Z,11.53
2022-11-10T10:37:00.777Z,11.72
2022-11-10T10:39:51.849Z,11.75
2022-11-10T10:42:39.893Z,11.71
2022-11-10T10:45:30.955Z,11.94
2022-11-10T10:48:30.356Z,12.06
2022-11-10T10:51:30.845Z,12.13
2022-11-10T10:54:29.833Z,12.14
2022-11-10T10:57:23.466Z,12.08
2022-11-10T11:00:22.012Z,12.08
2022-11-10T11:03:22.931Z,12.28
2022-11-10T11:06:21.578Z,12.26
2022-11-10T11:09:16.637Z,12.19
2022-11-10T11:12:07.284Z,12.16
2022-11-10T11:15:14.250Z,12.17
2022-11-10T11:18:03.602Z,12.27
2022-11-10T11:21:00.997Z,12.53
2022-11-10T11:24:06.835Z,12.34
2022-11-10T11:27:01.585Z,12.29
2022-11-10T11:30:09.904Z,12.24
2022-11-10T11:33:17.118Z,12.34
2022-11-10T11:36:17.382Z,12.26
2022-11-10T11:39:17.417Z,12.44
2022-11-10T11:42:16.422Z,12.63
2022-11-10T11:45:17.891Z,12.69
2022-11-10T11:48:44.865Z,12.66
2022-11-10T11:51:41.310Z,13.05
2022-11-10T11:54:33.714Z,12.92
2022-11-10T11:57:38.688Z,12.77
2022-11-10T12:00:31.236Z,12.55
2022-11-10T12:03:39.926Z,12.83
2022-11-10T12:06:42.661Z,12.83
2022-11-10T12:09:41.029Z,13.02
2022-11-10T12:12:58.847Z,12.83
2022-11-10T12:15:54.284Z,12.87
2022-11-10T12:18:51.016Z,12.77
2022-11-10T12:21:48.333Z,12.77
2022-11-10T12:24:53.023Z,12.67
2022-11-10T12:27:46.167Z,12.56
2022-11-10T12:30:35.560Z,12.58
2022-11-10T12:33:34.769Z,12.51
2022-11-10T12:36:23.550Z,12.46
2022-11-10T12:39:18.641Z,12.48
2022-11-10T12:42:09.158Z,12.47
2022-11-10T12:45:01.182Z,12.52
2022-11-10T12:47:49.729Z,12.52
2022-11-10T12:50:45.946Z,12.49
2022-11-10T12:53:36.573Z,12.48
2022-11-10T12:56:31.197Z,12.49
2022-11-10T12:59:34.389Z,12.46
2022-11-10T13:02:31.109Z,12.46
2022-11-10T13:05:37.474Z,12.46
2022-11-10T13:08:34.592Z,12.45
2022-11-10T13:11:31.102Z,12.47
2022-11-10T13:14:25.811Z,12.52
2022-11-10T13:17:52.818Z,12.52
2022-11-10T13:20:52.364Z,12.53
2022-11-10T13:24:19.965Z,12.56
2022-11-10T13:27:13.398Z,12.56
2022-11-10T13:30:01.602Z,12.55
2022-11-10T13:32:49.599Z,12.54
2022-11-10T13:35:55.539Z,12.54
2022-11-10T13:38:45.837Z,12.56
2022-11-10T13:41:35.640Z,12.57
2022-11-10T13:44:27.912Z,12.59
2022-11-10T13:47:48.361Z,12.56
2022-11-10T13:50:49.980Z,12.58
2022-11-10T13:53:45.833Z,12.58
2022-11-10T13:56:52.207Z,12.60
2022-11-10T13:59:50.432Z,12.57
2022-11-10T14:02:49.971Z,12.58
2022-11-10T14:06:07.287Z,12.57
2022-11-10T14:08:59.948Z,12.61
2022-11-10T14:11:51.164Z,12.65
2022-11-10T14:14:52.373Z,12.67
2022-11-10T14:17:45.337Z,12.67
2022-11-10T14:20:45.018Z,12.65
2022-11-10T14:23:37.910Z,12.69
2022-11-10T14:26:31.374Z,12.71
2022-11-10T14:29:38.452Z,12.70
2022-11-10T14:32:27.977Z,12.72
2022-11-10T14:35:22.635Z,12.72
2022-11-10T14:38:21.117Z,12.79
2022-11-10T14:41:18.534Z,12.74
2022-11-10T14:44:08.848Z,12.78
2022-11-10T14:46:57.288Z,12.79
2022-11-10T14:49:46.593Z,12.84
2022-11-10T14:52:38.631Z,12.83
2022-11-10T14:55:30.291Z,12.87
2022-11-10T14:58:24.440Z,12.85
2022-11-10T15:01:26.444Z,12.81
2022-11-10T15:04:16.468Z,12.87
2022-11-10T15:07:07.009Z,12.89
2022-11-10T15:10:14.318Z,12.81
2022-11-10T15:13:04.922Z,12.87
2022-11-10T15:15:53.550Z,12.82
2022-11-10T15:18:41.417Z,12.76
2022-11-10T15:21:34.039Z,12.81
2022-11-10T15:24:25.923Z,12.78
2022-11-10T15:27:23.050Z,12.85
2022-11-10T15:30:24.420Z,12.86
2022-11-10T15:33:12.542Z,12.84
2022-11-10T15:36:17.024Z,12.83
2022-11-10T15:39:20.000Z,12.83
2022-11-10T15:42:16.096Z,12.83
2022-11-10T15:45:03.877Z,12.88
2022-11-10T15:47:51.555Z,12.86
2022-11-10T15:50:39.576Z,12.82
2022-11-10T15:53:31.033Z,12.85
2022-11-10T15:56:21.822Z,12.83
2022-11-10T15:59:12.737Z,12.85
2022-11-10T16:02:00.996Z,12.81
2022-11-10T16:04:52.423Z,12.82
2022-11-10T16:07:42.197Z,12.86
2022-11-10T16:10:30.439Z,12.88
2022-11-10T16:13:22.191Z,12.92
2022-11-10T16:16:14.677Z,12.87
2022-11-10T16:19:02.600Z,12.92
2022-11-10T16:21:50.110Z,12.95
2022-11-10T16:24:37.932Z,13.01
2022-11-10T16:27:25.754Z,12.96
2022-11-10T16:30:15.777Z,12.92
2022-11-10T16:33:04.758Z,13.06
2022-11-10T16:35:54.030Z,13.05
2022-11-10T16:38:41.603Z,13.08
2022-11-10T16:41:29.412Z,13.17
2022-11-10T16:44:22.735Z,13.09
2022-11-10T16:47:18.906Z,13.08
2022-11-10T16:50:24.874Z,13.02
2022-11-10T16:53:17.177Z,13.18
2022-11-10T16:56:05.122Z,13.17
2022-11-10T16:58:54.498Z,13.17
2022-11-10T17:01:45.396Z,13.11
2022-11-10T17:04:33.001Z,13.08
2022-11-10T17:07:24.500Z,13.09
2022-11-10T17:10:15.813Z,13.15
2022-11-10T17:13:03.850Z,13.24
2022-11-10T17:15:53.562Z,13.20
2022-11-10T17:18:41.661Z,13.17
2022-11-10T17:21:33.243Z,13.21
2022-11-10T17:24:23.011Z,13.26
2022-11-10T17:27:11.949Z,13.18
2022-11-10T17:29:59.674Z,13.23
2022-11-10T17:33:06.116Z,13.23
2022-11-10T17:35:54.706Z,13.26
2022-11-10T17:38:42.628Z,13.26
2022-11-10T17:41:31.887Z,13.27
2022-11-10T17:44:20.782Z,13.21
2022-11-10T17:47:08.485Z,13.23
2022-11-10T17:49:55.911Z,13.33
2022-11-10T17:52:43.986Z,13.24
2022-11-10T17:55:34.443Z,13.20
2022-11-10T17:58:24.237Z,13.15
2022-11-10T18:01:21.992Z,13.14
2022-11-10T18:04:12.857Z,13.28
2022-11-10T18:07:00.633Z,13.18
2022-11-10T18:09:49.034Z,13.19
2022-11-10T18:12:36.786Z,13.13
2022-11-10T18:15:25.963Z,13.21
2022-11-10T18:18:14.698Z,13.11
2022-11-10T18:21:02.504Z,13.23
2022-11-10T18:23:49.982Z,13.17
2022-11-10T18:26:37.737Z,13.13
2022-11-10T18:29:25.183Z,13.18
2022-11-10T18:32:14.244Z,13.29
2022-11-10T18:35:01.828Z,13.17
2022-11-10T18:37:49.500Z,13.17
2022-11-10T18:40:36.864Z,13.21
2022-11-10T18:43:24.604Z,13.20
2022-11-10T18:46:12.584Z,13.18
2022-11-10T18:49:01.835Z,13.21
2022-11-10T18:51:49.419Z,13.17
2022-11-10T18:54:37.102Z,13.21
2022-11-10T18:57:24.671Z,13.19
2022-11-10T19:00:13.992Z,13.20
2022-11-10T19:03:01.419Z,13.13
2022-11-10T19:05:58.215Z,13.15
2022-11-10T19:08:46.904Z,13.16
2022-11-10T19:11:35.601Z,13.18
2022-11-10T19:14:23.442Z,13.12
2022-11-10T19:17:11.660Z,13.18
2022-11-10T19:19:59.375Z,13.16
2022-11-10T19:22:48.247Z,13.10
2022-11-10T19:25:35.858Z,13.10
2022-11-10T19:28:23.657Z,13.14
2022-11-10T19:31:14.143Z,13.19
2022-11-10T19:34:01.825Z,13.15
2022-11-10T19:36:49.813Z,13.08
2022-11-10T19:39:38.804Z,13.07
2022-11-10T19:42:26.612Z,13.06
2022-11-10T19:45:15.424Z,13.02
2022-11-10T19:48:02.904Z,12.99
2022-11-10T19:50:55.293Z,13.05
2022-11-10T19:53:43.841Z,13.07
2022-11-10T19:56:35.529Z,13.04
2022-11-10T19:59:23.071Z,13.02
2022-11-10T20:02:13.344Z,13.08
2022-11-10T20:05:17.282Z,13.06
2022-11-10T20:08:12.379Z,13.07
2022-11-10T20:11:04.919Z,13.09
2022-11-10T20:13:56.203Z,13.09
2022-11-10T20:16:44.032Z,13.04
2022-11-10T20:19:32.939Z,13.09
2022-11-10T20:22:22.154Z,13.07
2022-11-10T20:25:10.153Z,13.10
2022-11-10T20:27:58.655Z,13.10
2022-11-10T20:30:47.733Z,13.13
2022-11-10T20:33:36.161Z,13.12
2022-11-10T20:36:26.841Z,13.14
2022-11-10T20:39:14.601Z,13.02
2022-11-10T20:42:02.054Z,13.05
2022-11-10T20:44:49.611Z,13.08
2022-11-10T20:47:38.812Z,13.00
2022-11-10T20:50:26.523Z,13.06
2022-11-10T20:53:14.473Z,13.02
2022-11-10T20:56:02.645Z,12.97
2022-11-10T20:58:52.242Z,12.92
2022-11-10T21:01:40.187Z,12.96
2022-11-10T21:04:29.432Z,12.94
2022-11-10T21:07:17.235Z,12.94
2022-11-10T21:10:05.471Z,12.96
2022-11-10T21:12:53.233Z,12.88
2022-11-10T21:15:41.541Z,12.85
2022-11-10T21:18:30.752Z,12.81
2022-11-10T21:21:26.295Z,12.83
2022-11-10T21:24:13.964Z,12.85
2022-11-10T21:27:01.612Z,12.82
2022-11-10T21:29:49.137Z,12.72
2022-11-10T21:32:36.730Z,12.77
2022-11-10T21:35:24.368Z,12.81
2022-11-10T21:38:15.069Z,12.80
2022-11-10T21:41:02.596Z,12.82
2022-11-10T21:43:50.148Z,12.78
2022-11-10T21:46:37.660Z,12.79
2022-11-10T21:49:25.127Z,12.82
2022-11-10T21:52:12.540Z,12.74
2022-11-10T21:55:01.545Z,12.72
2022-11-10T21:57:49.506Z,12.70
2022-11-10T22:00:36.953Z,12.63
2022-11-10T22:03:25.110Z,12.62
2022-11-10T22:06:14.891Z,12.64
2022-11-10T22:09:02.774Z,12.62
2022-11-10T22:12:08.938Z,12.59
2022-11-10T22:15:14.096Z,12.54
2022-11-10T22:18:19.858Z,12.55
2022-11-10T22:21:09.389Z,12.56
2022-11-10T22:24:14.668Z,12.51
2022-11-10T22:27:05.096Z,12.50
2022-11-10T22:29:52.914Z,12.48
2022-11-10T22:32:42.462Z,12.47
2022-11-10T22:35:44.895Z,12.43
2022-11-10T22:38:34.919Z,12.39
2022-11-10T22:41:39.784Z,12.39
2022-11-10T22:44:29.021Z,12.30
2022-11-10T22:47:16.678Z,12.25
2022-11-10T22:50:04.359Z,12.21
2022-11-10T22:52:52.179Z,12.22
2022-11-10T22:55:39.808Z,12.16
2022-11-10T22:58:27.488Z,12.13
2022-11-10T23:01:16.440Z,12.08
2022-11-10T23:04:04.763Z,12.07
2022-11-10T23:06:52.666Z,12.00
2022-11-10T23:09:40.271Z,12.00
2022-11-10T23:12:27.650Z,11.95
2022-11-10T23:15:15.260Z,11.93
2022-11-10T23:18:06.833Z,11.89
2022-11-10T23:20:59.251Z,11.87
2022-11-10T23:23:48.206Z,11.81
2022-11-10T23:26:35.869Z,11.78
2022-11-10T23:29:23.375Z,11.76
2022-11-10T23:32:10.832Z,11.68
2022-11-10T23:34:59.692Z,11.64
2022-11-10T23:37:47.299Z,11.60
2022-11-10T23:40:34.820Z,11.55
2022-11-10T23:43:22.752Z,11.52
2022-11-10T23:46:10.683Z,11.51
2022-11-10T23:48:58.446Z,11.47
2022-11-10T23:51:47.422Z,11.50
2022-11-10T23:54:35.311Z,11.45
2022-11-10T23:57:22.762Z,11.43
